createdAt,value
2022-10-06T00:00:33.998Z,0.52
2022-10-06T00:08:38.520Z,1.23
2022-10-06T00:12:42.214Z,0.40
2022-10-06T00:20:27.191Z,0.50
2022-10-06T00:24:06.509Z,1.02
2022-10-06T00:27:20.441Z,0.50
2022-10-06T00:30:48.641Z,0.60
2022-10-06T00:37:21.193Z,0.65
2022-10-06T00:40:57.743Z,0.70
2022-10-06T00:44:40.591Z,0.70
2022-10-06T00:59:16.153Z,0.70
2022-10-06T01:02:58.998Z,0.45
2022-10-06T01:06:41.388Z,0.40
2022-10-06T01:10:12.878Z,0.43
2022-10-06T01:13:53.259Z,0.95
2022-10-06T01:17:23.987Z,0.47
2022-10-06T01:21:50.611Z,0.60
2022-10-06T01:25:42.958Z,0.43
2022-10-06T01:29:21.455Z,0.65
2022-10-06T01:33:20.814Z,0.60
2022-10-06T01:36:35.263Z,0.95
2022-10-06T01:40:32.504Z,0.90
2022-10-06T01:43:56.797Z,0.60
2022-10-06T01:47:04.999Z,0.70
2022-10-06T01:50:12.839Z,0.60
2022-10-06T01:53:20.423Z,0.93
2022-10-06T01:56:22.978Z,0.60
2022-10-06T01:59:26.154Z,0.60
2022-10-06T02:02:33.409Z,0.60
2022-10-06T02:05:41.140Z,0.60
2022-10-06T02:08:45.035Z,0.93
2022-10-06T02:11:53.643Z,0.95
2022-10-06T02:14:58.921Z,1.05
2022-10-06T02:18:01.469Z,0.50
2022-10-06T02:21:04.158Z,0.73
2022-10-06T02:24:11.548Z,1.23
2022-10-06T02:27:14.647Z,0.70
2022-10-06T02:30:17.871Z,0.60
2022-10-06T02:33:23.679Z,0.98
2022-10-06T02:36:26.328Z,0.80
2022-10-06T02:39:30.879Z,0.65
2022-10-06T02:42:35.388Z,0.60
2022-10-06T02:45:38.358Z,1.33
2022-10-06T02:48:41.507Z,0.93
2022-10-06T02:51:49.085Z,1.20
2022-10-06T02:54:58.974Z,0.90
2022-10-06T02:59:25.586Z,0.93
2022-10-06T03:04:13.516Z,1.20
2022-10-06T03:15:59.370Z,0.70
2022-10-06T03:20:24.919Z,0.88
2022-10-06T03:24:45.003Z,0.80
2022-10-06T03:28:13.390Z,1.38
2022-10-06T03:31:21.813Z,0.95
2022-10-06T03:34:24.589Z,1.00
2022-10-06T03:37:28.562Z,1.05
2022-10-06T03:40:30.952Z,0.98
2022-10-06T03:43:34.708Z,1.05
2022-10-06T03:46:37.303Z,1.13
2022-10-06T03:49:42.214Z,1.17
2022-10-06T03:52:45.502Z,1.48
2022-10-06T03:55:47.730Z,1.05
2022-10-06T03:58:52.701Z,1.30
2022-10-06T04:01:56.087Z,0.77
2022-10-06T04:05:06.032Z,0.80
2022-10-06T04:08:08.284Z,0.82
2022-10-06T04:11:12.264Z,1.00
2022-10-06T04:14:16.603Z,1.23
2022-10-06T04:17:20.409Z,1.92
2022-10-06T04:20:22.732Z,2.30
2022-10-06T04:23:25.075Z,2.15
2022-10-06T04:26:30.499Z,0.90
2022-10-06T04:29:34.278Z,0.90
2022-10-06T04:32:37.648Z,0.80
2022-10-06T04:35:39.780Z,1.92
2022-10-06T04:38:42.534Z,1.00
2022-10-06T04:41:47.661Z,0.95
2022-10-06T04:45:04.533Z,1.05
2022-10-06T04:48:09.993Z,0.80
2022-10-06T04:51:14.254Z,1.33
2022-10-06T04:54:16.938Z,1.88
2022-10-06T04:57:19.152Z,1.35
2022-10-06T05:00:22.831Z,2.03
2022-10-06T05:03:26.219Z,1.30
2022-10-06T05:06:29.942Z,1.40
2022-10-06T05:09:33.342Z,1.65
2022-10-06T05:12:37.007Z,1.63
2022-10-06T05:15:40.746Z,1.30
2022-10-06T05:18:43.579Z,1.73
2022-10-06T05:21:48.961Z,1.42
2022-10-06T05:24:55.833Z,1.58
2022-10-06T05:27:58.135Z,1.20
2022-10-06T05:31:03.866Z,1.45
2022-10-06T05:34:06.563Z,1.85
2022-10-06T05:37:08.962Z,3.92
2022-10-06T05:40:11.638Z,3.60
2022-10-06T05:43:13.921Z,1.48
2022-10-06T05:46:24.808Z,1.08
2022-10-06T05:49:29.092Z,1.73
2022-10-06T05:52:34.470Z,2.03
2022-10-06T05:55:36.951Z,2.30
2022-10-06T05:58:40.742Z,1.52
2022-10-06T06:01:44.367Z,3.42
2022-10-06T06:05:00.820Z,1.70
2022-10-06T06:08:03.052Z,2.33
2022-10-06T06:11:07.539Z,2.15
2022-10-06T06:14:11.552Z,0.90
2022-10-06T06:17:15.668Z,1.13
2022-10-06T06:20:17.958Z,1.23
2022-10-06T06:23:20.351Z,1.20
2022-10-06T06:26:24.037Z,1.20
2022-10-06T06:29:27.887Z,1.38
2022-10-06T06:32:31.915Z,1.25
2022-10-06T06:35:34.849Z,1.70
2022-10-06T06:38:37.930Z,1.58
2022-10-06T06:41:41.906Z,1.27
2022-10-06T06:44:55.566Z,1.77
2022-10-06T06:48:05.911Z,1.23
2022-10-06T06:51:11.766Z,1.48
2022-10-06T06:54:13.961Z,1.20
2022-10-06T06:57:22.059Z,1.05
2022-10-06T07:00:26.839Z,1.23
2022-10-06T07:03:56.205Z,1.55
2022-10-06T07:06:58.133Z,2.00
2022-10-06T07:10:04.585Z,1.25
2022-10-06T07:13:14.077Z,1.40
2022-10-06T07:16:35.939Z,1.45
2022-10-06T07:19:58.296Z,1.90
2022-10-06T07:23:22.089Z,3.13
2022-10-06T07:26:24.739Z,1.92
2022-10-06T07:29:27.816Z,1.70
2022-10-06T07:32:31.204Z,1.35
2022-10-06T07:35:35.698Z,1.27
2022-10-06T07:38:39.811Z,1.42
2022-10-06T07:41:44.161Z,1.13
2022-10-06T07:45:08.527Z,1.98
2022-10-06T07:48:15.311Z,1.67
2022-10-06T07:51:20.280Z,1.10
2022-10-06T07:54:27.143Z,2.13
2022-10-06T07:57:52.779Z,1.73
2022-10-06T08:00:55.106Z,2.10
2022-10-06T08:03:57.300Z,1.60
2022-10-06T08:07:00.904Z,1.42
2022-10-06T08:10:03.751Z,1.65
2022-10-06T08:13:06.421Z,1.48
2022-10-06T08:16:10.636Z,2.08
2022-10-06T08:19:14.543Z,1.98
2022-10-06T08:22:18.189Z,1.23
2022-10-06T08:25:20.814Z,1.33
2022-10-06T08:28:24.349Z,1.25
2022-10-06T08:31:26.902Z,1.23
2022-10-06T08:34:29.292Z,1.58
2022-10-06T08:37:35.888Z,1.17
2022-10-06T08:40:38.148Z,1.25
2022-10-06T08:43:40.347Z,1.95
2022-10-06T08:46:49.488Z,1.40
2022-10-06T08:49:54.065Z,1.40
2022-10-06T08:53:06.433Z,1.30
2022-10-06T08:56:17.973Z,2.22
2022-10-06T08:59:21.222Z,2.00
2022-10-06T09:02:28.588Z,2.50
2022-10-06T09:05:32.009Z,1.60
2022-10-06T09:08:50.689Z,1.85
2022-10-06T09:12:02.232Z,1.67
2022-10-06T09:15:15.525Z,1.25
2022-10-06T09:18:22.173Z,1.27
2022-10-06T09:21:30.262Z,1.58
2022-10-06T09:24:37.828Z,1.15
2022-10-06T09:27:41.512Z,1.20
2022-10-06T09:30:43.863Z,1.40
2022-10-06T09:33:47.200Z,1.42
2022-10-06T09:37:01.968Z,1.08
2022-10-06T09:40:36.551Z,1.27
2022-10-06T09:43:39.344Z,1.00
2022-10-06T09:46:43.394Z,1.00
2022-10-06T09:50:12.383Z,1.40
2022-10-06T09:53:16.240Z,0.80
2022-10-06T09:56:19.869Z,1.08
2022-10-06T09:59:24.083Z,0.95
2022-10-06T10:02:31.686Z,0.77
2022-10-06T10:05:36.407Z,0.70
2022-10-06T10:08:38.611Z,0.50
2022-10-06T10:12:02.639Z,0.95
2022-10-06T10:15:24.123Z,0.60
2022-10-06T10:18:30.286Z,1.00
2022-10-06T10:21:33.956Z,0.95
2022-10-06T10:24:47.603Z,1.02
2022-10-06T10:27:58.058Z,0.82
2022-10-06T10:31:05.333Z,1.02
2022-10-06T10:34:23.856Z,0.73
2022-10-06T10:37:31.775Z,0.88
2022-10-06T10:40:40.093Z,0.50
2022-10-06T10:43:48.002Z,0.73
2022-10-06T10:46:52.421Z,0.45
2022-10-06T10:49:59.392Z,0.70
2022-10-06T10:53:08.872Z,0.57
2022-10-06T10:56:12.354Z,0.70
2022-10-06T10:59:19.020Z,0.75
2022-10-06T11:02:22.536Z,0.80
2022-10-06T11:05:36.451Z,1.00
2022-10-06T11:08:45.118Z,1.08
2022-10-06T11:11:57.913Z,0.73
2022-10-06T11:15:03.488Z,1.00
2022-10-06T11:18:13.303Z,0.70
2022-10-06T11:21:18.975Z,0.60
2022-10-06T11:24:31.855Z,0.50
2022-10-06T11:27:41.033Z,0.60
2022-10-06T11:31:00.353Z,0.60
2022-10-06T11:34:04.499Z,1.02
2022-10-06T11:37:16.640Z,0.85
2022-10-06T11:40:35.518Z,0.88
2022-10-06T11:43:43.009Z,0.73
2022-10-06T11:46:51.138Z,0.70
2022-10-06T11:49:55.981Z,0.73
2022-10-06T11:52:58.234Z,1.02
2022-10-06T11:56:43.175Z,0.98
2022-10-06T11:59:45.351Z,1.08
2022-10-06T12:02:49.122Z,0.85
2022-10-06T12:05:58.690Z,0.57
2022-10-06T12:09:01.933Z,0.70
2022-10-06T12:13:06.841Z,0.60
2022-10-06T12:19:53.513Z,0.60
2022-10-06T12:23:01.367Z,0.60
2022-10-06T12:26:07.733Z,0.50
2022-10-06T12:29:26.276Z,0.60
2022-10-06T12:32:44.133Z,0.73
2022-10-06T12:35:50.922Z,0.55
2022-10-06T12:39:05.294Z,0.60
2022-10-06T12:42:16.380Z,0.90
2022-10-06T12:45:19.031Z,0.55
2022-10-06T12:48:31.282Z,0.80
2022-10-06T12:51:38.784Z,0.82
2022-10-06T12:54:50.735Z,0.63
2022-10-06T12:57:53.436Z,0.50
2022-10-06T13:01:02.556Z,0.70
2022-10-06T13:04:06.906Z,0.60
2022-10-06T13:07:14.479Z,0.70
2022-10-06T13:10:19.581Z,0.80
2022-10-06T13:13:24.604Z,0.90
2022-10-06T13:16:29.026Z,0.85
2022-10-06T13:19:31.357Z,0.75
2022-10-06T13:22:35.269Z,0.85
2022-10-06T13:25:46.967Z,0.70
2022-10-06T13:31:53.252Z,0.47
2022-10-06T13:34:57.643Z,0.70
2022-10-06T13:38:03.972Z,0.82
2022-10-06T13:41:21.828Z,0.60
2022-10-06T13:44:29.263Z,0.57
2022-10-06T13:47:31.757Z,0.50
2022-10-06T13:50:39.012Z,0.68
2022-10-06T13:53:44.920Z,0.57
2022-10-06T13:56:47.165Z,0.82
2022-10-06T14:00:02.363Z,0.80
2022-10-06T14:03:10.512Z,0.50
2022-10-06T14:06:16.892Z,0.70
2022-10-06T14:09:24.385Z,0.70
2022-10-06T14:12:26.873Z,0.40
2022-10-06T14:15:31.253Z,0.93
2022-10-06T14:18:37.686Z,0.50
2022-10-06T14:21:45.734Z,0.80
2022-10-06T14:24:52.348Z,0.77
2022-10-06T14:27:55.122Z,0.40
2022-10-06T14:30:57.818Z,0.40
2022-10-06T14:34:00.542Z,0.60
2022-10-06T14:37:02.731Z,0.50
2022-10-06T14:40:12.085Z,0.40
2022-10-06T14:43:14.647Z,0.50
2022-10-06T14:46:16.931Z,0.57
2022-10-06T14:49:19.497Z,0.40
2022-10-06T14:52:22.216Z,0.50
2022-10-06T14:55:28.968Z,0.30
2022-10-06T14:58:31.786Z,0.70
2022-10-06T15:01:39.568Z,0.50
2022-10-06T15:04:44.063Z,0.50
2022-10-06T15:08:05.048Z,0.60
2022-10-06T15:11:08.676Z,0.93
2022-10-06T15:14:12.708Z,0.60
2022-10-06T15:17:15.014Z,0.77
2022-10-06T15:20:17.668Z,0.40
2022-10-06T15:23:20.057Z,0.43
2022-10-06T15:26:42.940Z,0.82
2022-10-06T15:29:45.181Z,0.40
2022-10-06T15:32:48.693Z,0.50
2022-10-06T15:36:06.961Z,0.50
2022-10-06T15:39:10.725Z,0.60
2022-10-06T15:42:20.254Z,0.52
2022-10-06T15:45:22.487Z,0.52
2022-10-06T15:48:24.788Z,0.60
2022-10-06T15:51:30.278Z,0.60
2022-10-06T15:54:37.879Z,0.32
2022-10-06T15:57:41.531Z,0.90
2022-10-06T16:00:44.070Z,0.40
2022-10-06T16:03:46.344Z,0.93
2022-10-06T16:06:55.384Z,1.33
2022-10-06T16:09:57.603Z,0.63
2022-10-06T16:13:01.224Z,0.68
2022-10-06T16:16:03.630Z,0.85
2022-10-06T16:19:06.076Z,0.50
2022-10-06T16:22:10.102Z,0.63
2022-10-06T16:25:15.355Z,0.85
2022-10-06T16:28:19.004Z,0.50
2022-10-06T16:31:21.627Z,0.50
2022-10-06T16:34:25.369Z,0.93
2022-10-06T16:37:30.124Z,0.55
2022-10-06T16:40:32.447Z,0.40
2022-10-06T16:43:37.513Z,0.50
2022-10-06T16:46:40.029Z,0.90
2022-10-06T16:49:42.445Z,0.40
2022-10-06T16:52:44.907Z,0.60
2022-10-06T16:55:47.137Z,0.80
2022-10-06T16:58:55.008Z,0.60
2022-10-06T17:01:57.253Z,0.75
2022-10-06T17:04:59.413Z,0.70
2022-10-06T17:08:01.606Z,0.77
2022-10-06T17:11:10.838Z,0.70
2022-10-06T17:14:14.690Z,0.60
2022-10-06T17:17:17.107Z,0.68
2022-10-06T17:20:19.402Z,0.60
2022-10-06T17:23:22.191Z,0.63
2022-10-06T17:26:27.468Z,0.75
2022-10-06T17:29:30.997Z,0.70
2022-10-06T17:32:33.197Z,0.90
2022-10-06T17:35:37.104Z,1.00
2022-10-06T17:38:41.838Z,0.80
2022-10-06T17:41:45.552Z,0.80
2022-10-06T17:44:49.134Z,0.80
2022-10-06T17:47:55.185Z,1.13
2022-10-06T17:50:58.237Z,1.33
2022-10-06T17:54:03.848Z,1.02
2022-10-06T17:57:06.086Z,1.10
2022-10-06T18:00:11.375Z,1.50
2022-10-06T18:03:16.855Z,1.33
2022-10-06T18:06:19.532Z,1.20
2022-10-06T18:09:22.379Z,2.33
2022-10-06T18:12:25.070Z,1.92
2022-10-06T18:15:28.718Z,4.35
2022-10-06T18:18:31.115Z,2.67
2022-10-06T18:21:38.732Z,2.38
2022-10-06T18:24:41.562Z,1.92
2022-10-06T18:27:45.637Z,1.42
2022-10-06T18:30:51.275Z,1.52
2022-10-06T18:37:16.248Z,1.40
2022-10-06T18:40:18.446Z,1.50
2022-10-06T18:43:20.808Z,1.30
2022-10-06T18:46:44.538Z,1.73
2022-10-06T18:49:46.840Z,1.67
2022-10-06T18:52:49.023Z,1.60
2022-10-06T18:55:53.090Z,2.03
2022-10-06T18:58:56.454Z,3.15
2022-10-06T19:02:00.677Z,2.90
2022-10-06T19:05:03.332Z,3.55
2022-10-06T19:08:05.901Z,3.97
2022-10-06T19:11:26.550Z,3.28
2022-10-06T19:14:32.592Z,4.50
2022-10-06T19:17:36.271Z,4.68
2022-10-06T19:20:39.422Z,3.90
2022-10-06T19:23:41.842Z,5.13
2022-10-06T19:26:46.402Z,4.38
2022-10-06T19:29:50.869Z,7.10
2022-10-06T19:32:54.511Z,7.82
2022-10-06T19:35:57.384Z,7.03
2022-10-06T19:39:03.498Z,5.00
2022-10-06T19:42:24.537Z,4.82
2022-10-06T19:45:26.806Z,4.57
2022-10-06T19:48:30.914Z,4.22
2022-10-06T19:51:34.294Z,3.25
2022-10-06T19:54:37.108Z,3.88
2022-10-06T19:57:39.387Z,3.75
2022-10-06T20:00:42.081Z,3.75
2022-10-06T20:03:45.750Z,3.65
2022-10-06T20:06:48.511Z,2.83
2022-10-06T20:09:50.756Z,2.55
2022-10-06T20:12:53.001Z,2.13
2022-10-06T20:15:55.305Z,4.45
2022-10-06T20:18:59.191Z,3.00
2022-10-06T20:22:01.517Z,3.55
2022-10-06T20:25:05.163Z,2.88
2022-10-06T20:28:09.333Z,3.13
2022-10-06T20:31:16.405Z,3.03
2022-10-06T20:34:22.196Z,3.25
2022-10-06T20:37:24.638Z,3.45
2022-10-06T20:40:47.070Z,2.83
2022-10-06T20:43:49.728Z,2.88
2022-10-06T20:46:51.893Z,2.92
2022-10-06T20:49:55.532Z,2.45
2022-10-06T20:52:58.438Z,3.78
2022-10-06T20:56:00.627Z,2.47
2022-10-06T20:59:03.421Z,3.28
2022-10-06T21:02:06.050Z,2.67
2022-10-06T21:05:10.105Z,2.22
2022-10-06T21:08:12.378Z,2.22
2022-10-06T21:11:18.939Z,2.80
2022-10-06T21:14:23.007Z,2.30
2022-10-06T21:17:25.431Z,3.15
2022-10-06T21:20:29.011Z,2.53
2022-10-06T21:23:36.850Z,4.30
2022-10-06T21:26:40.500Z,3.60
2022-10-06T21:29:42.808Z,2.40
2022-10-06T21:32:45.149Z,3.47
2022-10-06T21:35:49.024Z,2.35
2022-10-06T21:38:52.509Z,2.67
2022-10-06T21:41:54.728Z,3.35
2022-10-06T21:44:59.818Z,2.67
2022-10-06T21:48:01.951Z,3.33
2022-10-06T21:51:05.515Z,2.85
2022-10-06T21:54:10.036Z,4.43
2022-10-06T21:57:15.245Z,3.67
2022-10-06T22:00:17.506Z,2.78
2022-10-06T22:03:19.741Z,4.35
2022-10-06T22:06:23.714Z,4.10
2022-10-06T22:09:26.082Z,3.35
2022-10-06T22:12:28.295Z,3.53
2022-10-06T22:15:30.399Z,3.15
2022-10-06T22:18:33.121Z,4.28
2022-10-06T22:21:38.223Z,3.20
2022-10-06T22:24:40.341Z,2.90
2022-10-06T22:27:42.883Z,2.92
2022-10-06T22:30:45.266Z,3.10
2022-10-06T22:33:50.065Z,4.47
2022-10-06T22:36:53.671Z,3.72
2022-10-06T22:39:55.956Z,4.63
2022-10-06T22:42:58.083Z,3.10
2022-10-06T22:46:00.452Z,3.35
2022-10-06T22:49:03.552Z,2.92
2022-10-06T22:52:07.062Z,6.05
2022-10-06T22:55:09.460Z,3.20
2022-10-06T22:58:11.869Z,3.70
2022-10-06T23:01:15.790Z,2.55
2022-10-06T23:04:17.949Z,3.40
2022-10-06T23:07:21.452Z,3.33
2022-10-06T23:10:24.989Z,3.10
2022-10-06T23:13:30.070Z,4.03
2022-10-06T23:16:32.322Z,3.00
2022-10-06T23:19:34.559Z,3.40
2022-10-06T23:22:38.234Z,3.22
2022-10-06T23:25:40.384Z,3.08
2022-10-06T23:28:42.938Z,3.72
2022-10-06T23:31:45.207Z,2.90
2022-10-06T23:34:47.492Z,3.72
2022-10-06T23:37:51.001Z,3.80
2022-10-06T23:40:54.042Z,3.58
2022-10-06T23:43:56.178Z,4.93
2022-10-06T23:46:58.476Z,3.03
2022-10-06T23:50:00.710Z,3.08
2022-10-06T23:53:04.271Z,3.53
2022-10-06T23:56:07.384Z,3.15
2022-10-06T23:59:09.525Z,3.15
